createdAt,value
2017-04-30T00:01:32.927Z,88.30
2017-04-30T00:04:03.169Z,88.00
2017-04-30T00:06:32.298Z,88.10
2017-04-30T00:09:01.955Z,87.70
2017-04-30T00:11:32.184Z,87.60
2017-04-30T00:14:02.403Z,87.80
2017-04-30T00:16:32.652Z,88.00
2017-04-30T00:19:02.128Z,87.90
2017-04-30T00:21:32.358Z,87.50
2017-04-30T00:24:02.607Z,87.70
2017-04-30T00:26:32.736Z,87.40
2017-04-30T00:29:02.251Z,87.90
2017-04-30T00:31:31.726Z,87.80
2017-04-30T00:34:01.204Z,87.60
2017-04-30T00:36:30.691Z,88.50
2017-04-30T00:39:00.239Z,88.80
2017-04-30T00:41:29.387Z,88.70
2017-04-30T00:43:58.868Z,88.50
2017-04-30T00:46:28.345Z,88.70
2017-04-30T00:48:57.870Z,89.00
2017-04-30T00:51:27.355Z,88.60
2017-04-30T00:53:56.852Z,88.40
2017-04-30T00:56:26.331Z,88.50
2017-04-30T00:58:55.813Z,88.50
2017-04-30T01:01:24.938Z,88.90
2017-04-30T01:03:54.411Z,88.60
2017-04-30T01:06:23.899Z,89.30
2017-04-30T01:08:53.389Z,89.10
2017-04-30T01:11:22.883Z,89.30
2017-04-30T01:13:52.438Z,90.10
2017-04-30T01:16:21.942Z,89.00
2017-04-30T01:18:51.484Z,88.60
2017-04-30T01:21:20.633Z,88.90
2017-04-30T01:23:50.108Z,88.70
2017-04-30T01:26:19.595Z,88.60
2017-04-30T01:28:49.076Z,88.80
2017-04-30T01:31:18.548Z,89.00
2017-04-30T01:33:48.011Z,89.80
2017-04-30T01:36:17.492Z,90.20
2017-04-30T01:38:46.962Z,90.10
2017-04-30T01:41:16.471Z,90.00
2017-04-30T01:43:46.623Z,90.00
2017-04-30T01:46:16.132Z,89.90
2017-04-30T01:48:46.292Z,89.50
2017-04-30T01:51:15.762Z,89.60
2017-04-30T01:53:45.264Z,90.00
2017-04-30T01:56:14.755Z,89.80
2017-04-30T01:58:43.921Z,89.80
2017-04-30T02:01:13.419Z,89.70
2017-04-30T02:03:42.902Z,89.30
2017-04-30T02:06:12.356Z,89.20
2017-04-30T02:08:41.851Z,89.80
2017-04-30T02:11:11.319Z,89.70
2017-04-30T02:13:40.800Z,89.60
2017-04-30T02:16:10.272Z,89.40
2017-04-30T02:18:39.767Z,89.00
2017-04-30T02:21:09.255Z,89.50
2017-04-30T02:23:38.723Z,89.10
2017-04-30T02:26:08.188Z,89.30
2017-04-30T02:28:37.718Z,89.40
2017-04-30T02:31:07.183Z,90.10
2017-04-30T02:33:36.680Z,90.00
2017-04-30T02:36:06.191Z,89.90
2017-04-30T02:38:35.664Z,89.60
2017-04-30T02:41:05.183Z,89.70
2017-04-30T02:43:34.675Z,90.00
2017-04-30T02:46:03.844Z,90.20
2017-04-30T02:48:32.980Z,90.80
2017-04-30T02:51:02.442Z,90.10
2017-04-30T02:53:32.668Z,90.10
2017-04-30T02:56:02.144Z,90.40
2017-04-30T02:58:31.628Z,90.50
2017-04-30T03:01:00.772Z,90.60
2017-04-30T03:03:30.249Z,90.40
2017-04-30T03:05:59.808Z,90.70
2017-04-30T03:08:29.295Z,90.60
2017-04-30T03:10:58.760Z,90.50
2017-04-30T03:13:28.251Z,90.70
2017-04-30T03:15:58.415Z,91.00
2017-04-30T03:18:27.913Z,91.10
2017-04-30T03:20:58.047Z,91.10
2017-04-30T03:23:27.532Z,91.00
2017-04-30T03:25:57.018Z,90.90
2017-04-30T03:28:26.525Z,90.80
2017-04-30T03:30:56.027Z,91.20
2017-04-30T03:33:25.504Z,91.00
2017-04-30T03:35:54.984Z,90.80
2017-04-30T03:38:35.348Z,90.70
2017-04-30T03:41:15.695Z,90.80
2017-04-30T03:43:57.243Z,90.80
2017-04-30T03:46:37.880Z,90.70
2017-04-30T03:49:18.587Z,90.40
2017-04-30T03:51:59.364Z,90.30
2017-04-30T03:54:39.947Z,90.40
2017-04-30T03:57:20.594Z,90.70
2017-04-30T04:00:01.239Z,90.30
2017-04-30T04:02:41.873Z,90.50
2017-04-30T04:05:22.575Z,90.70
2017-04-30T04:08:03.513Z,90.80
2017-04-30T04:10:45.030Z,90.90
2017-04-30T04:13:25.596Z,90.70
2017-04-30T04:16:06.263Z,90.80
2017-04-30T04:18:46.925Z,90.90
2017-04-30T04:21:27.475Z,90.80
2017-04-30T04:24:08.168Z,90.60
2017-04-30T04:26:48.963Z,90.80
2017-04-30T04:29:29.635Z,90.70
2017-04-30T04:32:10.392Z,90.70
2017-04-30T04:34:51.160Z,90.80
2017-04-30T04:37:31.771Z,90.40
2017-04-30T04:40:13.342Z,90.50
2017-04-30T04:42:54.070Z,90.70
2017-04-30T04:45:34.636Z,90.80
2017-04-30T04:48:15.225Z,90.80
2017-04-30T04:50:55.795Z,90.70
2017-04-30T04:53:36.419Z,90.50
2017-04-30T04:56:16.985Z,90.90
2017-04-30T04:58:58.400Z,90.40
2017-04-30T05:01:38.959Z,90.60
2017-04-30T05:04:19.726Z,90.70
2017-04-30T05:07:00.319Z,90.70
2017-04-30T05:09:40.972Z,90.50
2017-04-30T05:12:21.626Z,90.70
2017-04-30T05:15:02.180Z,90.70
2017-04-30T05:17:42.892Z,90.80
2017-04-30T05:20:23.700Z,91.20
2017-04-30T05:23:05.034Z,91.10
2017-04-30T05:25:45.522Z,91.10
2017-04-30T05:28:27.066Z,91.30
2017-04-30T05:31:08.347Z,90.70
2017-04-30T05:33:48.977Z,90.80
2017-04-30T05:36:29.711Z,90.60
2017-04-30T05:39:10.095Z,90.40
2017-04-30T05:41:51.547Z,90.00
2017-04-30T05:44:32.196Z,90.60
2017-04-30T05:47:12.790Z,89.60
2017-04-30T05:49:53.536Z,89.10
2017-04-30T05:52:34.265Z,88.60
2017-04-30T05:55:14.995Z,87.80
2017-04-30T05:57:55.664Z,86.80
2017-04-30T06:00:36.308Z,86.10
2017-04-30T06:03:16.888Z,84.50
2017-04-30T06:05:57.240Z,83.90
2017-04-30T06:08:37.735Z,82.80
2017-04-30T06:11:18.327Z,82.00
2017-04-30T06:13:58.809Z,81.00
2017-04-30T06:16:39.164Z,80.50
2017-04-30T06:19:19.769Z,79.00
2017-04-30T06:22:00.217Z,79.50
2017-04-30T06:24:40.611Z,78.20
2017-04-30T06:27:21.079Z,78.40
2017-04-30T06:30:01.464Z,78.50
2017-04-30T06:32:41.647Z,77.10
2017-04-30T06:35:21.795Z,76.50
2017-04-30T06:38:01.944Z,75.30
2017-04-30T06:40:42.896Z,74.40
2017-04-30T06:43:23.104Z,73.10
2017-04-30T06:46:03.227Z,71.20
2017-04-30T06:48:43.403Z,70.30
2017-04-30T06:51:23.463Z,69.20
2017-04-30T06:54:03.691Z,66.60
2017-04-30T06:56:44.035Z,67.00
2017-04-30T06:59:25.213Z,66.60
2017-04-30T07:02:06.467Z,63.40
2017-04-30T07:04:46.839Z,65.00
2017-04-30T07:07:27.283Z,65.20
2017-04-30T07:10:08.056Z,63.10
2017-04-30T07:12:48.271Z,61.40
2017-04-30T07:15:28.485Z,60.60
2017-04-30T07:18:08.672Z,59.90
2017-04-30T07:20:48.820Z,60.90
2017-04-30T07:23:28.983Z,60.40
2017-04-30T07:26:10.226Z,59.30
2017-04-30T07:28:50.579Z,59.00
2017-04-30T07:31:30.923Z,57.60
2017-04-30T07:34:11.224Z,57.40
2017-04-30T07:36:51.644Z,58.00
2017-04-30T07:39:32.036Z,56.00
2017-04-30T07:42:12.315Z,56.40
2017-04-30T07:44:41.517Z,56.10
2017-04-30T07:47:10.723Z,56.20
2017-04-30T07:49:40.676Z,54.70
2017-04-30T07:52:09.899Z,54.10
2017-04-30T07:54:39.093Z,54.00
2017-04-30T07:57:08.279Z,55.50
2017-04-30T07:59:37.493Z,55.00
2017-04-30T08:02:06.705Z,54.30
2017-04-30T08:04:35.928Z,54.90
2017-04-30T08:07:05.872Z,54.20
2017-04-30T08:09:35.132Z,53.50
2017-04-30T08:12:04.365Z,52.70
2017-04-30T08:14:34.395Z,53.50
2017-04-30T08:17:03.609Z,53.90
2017-04-30T08:19:32.840Z,54.60
2017-04-30T08:22:02.068Z,53.10
2017-04-30T08:24:32.015Z,53.40
2017-04-30T08:27:01.202Z,51.80
2017-04-30T08:29:30.432Z,49.70
2017-04-30T08:31:59.638Z,50.40
2017-04-30T08:34:28.846Z,49.00
2017-04-30T08:36:58.039Z,50.80
2017-04-30T08:39:27.257Z,47.60
2017-04-30T08:41:56.504Z,47.30
2017-04-30T08:44:25.731Z,48.10
2017-04-30T08:46:54.950Z,48.30
2017-04-30T08:49:24.180Z,47.80
2017-04-30T08:51:53.382Z,47.00
2017-04-30T08:54:23.340Z,48.00
2017-04-30T08:56:52.567Z,47.80
2017-04-30T08:59:21.772Z,47.60
2017-04-30T09:01:51.050Z,46.50
2017-04-30T09:04:20.235Z,46.70
2017-04-30T09:06:49.442Z,44.50
2017-04-30T09:09:18.753Z,46.80
2017-04-30T09:11:47.964Z,46.10
2017-04-30T09:14:16.800Z,45.80
2017-04-30T09:16:46.770Z,45.20
2017-04-30T09:19:15.961Z,45.00
2017-04-30T09:21:45.167Z,44.50
2017-04-30T09:24:14.406Z,45.90
2017-04-30T09:26:43.611Z,47.40
2017-04-30T09:29:12.811Z,44.60
2017-04-30T09:31:42.007Z,43.30
2017-04-30T09:34:11.211Z,44.70
2017-04-30T09:36:40.424Z,45.10
2017-04-30T09:39:09.618Z,41.50
2017-04-30T09:41:38.850Z,45.30
2017-04-30T09:44:08.077Z,44.70
2017-04-30T09:46:37.275Z,42.70
2017-04-30T09:49:06.517Z,45.30
2017-04-30T09:51:35.708Z,44.20
2017-04-30T09:54:05.607Z,44.00
2017-04-30T09:56:34.819Z,42.70
2017-04-30T09:59:04.036Z,43.70
2017-04-30T10:01:33.915Z,44.10
2017-04-30T10:04:03.139Z,44.50
2017-04-30T10:06:33.131Z,42.20
2017-04-30T10:09:02.411Z,43.10
2017-04-30T10:11:31.604Z,40.00
2017-04-30T10:14:00.795Z,43.10
2017-04-30T10:16:30.007Z,43.00
2017-04-30T10:18:59.200Z,43.60
2017-04-30T10:21:28.415Z,42.30
2017-04-30T10:23:57.626Z,43.90
2017-04-30T10:26:26.814Z,42.50
2017-04-30T10:28:56.000Z,44.20
2017-04-30T10:31:25.191Z,42.30
2017-04-30T10:33:54.397Z,44.10
2017-04-30T10:36:23.597Z,42.40
2017-04-30T10:38:52.838Z,45.20
2017-04-30T10:41:22.779Z,43.50
2017-04-30T10:43:51.963Z,43.20
2017-04-30T10:46:21.170Z,40.20
2017-04-30T10:48:50.375Z,41.50
2017-04-30T10:51:19.581Z,43.20
2017-04-30T10:53:48.771Z,44.40
2017-04-30T10:56:17.976Z,44.60
2017-04-30T10:58:47.166Z,44.10
2017-04-30T11:01:16.351Z,40.90
2017-04-30T11:03:45.563Z,38.60
2017-04-30T11:06:14.751Z,42.00
2017-04-30T11:08:43.978Z,42.40
2017-04-30T11:11:13.179Z,41.90
2017-04-30T11:13:42.445Z,41.90
2017-04-30T11:16:11.659Z,44.60
2017-04-30T11:18:41.603Z,44.20
2017-04-30T11:21:10.813Z,44.30
2017-04-30T11:23:40.068Z,42.00
2017-04-30T11:26:10.015Z,44.10
2017-04-30T11:28:39.215Z,43.50
2017-04-30T11:31:08.553Z,41.50
2017-04-30T11:33:37.747Z,42.80
2017-04-30T11:36:07.111Z,44.70
2017-04-30T11:38:36.325Z,42.30
2017-04-30T11:41:05.646Z,43.20
2017-04-30T11:43:34.845Z,43.00
2017-04-30T11:46:04.093Z,42.00
2017-04-30T11:48:33.295Z,43.50
2017-04-30T11:51:02.503Z,42.70
2017-04-30T11:53:31.711Z,42.40
2017-04-30T11:56:00.947Z,43.00
2017-04-30T11:58:30.133Z,41.30
2017-04-30T12:00:59.348Z,42.50
2017-04-30T12:03:28.548Z,43.10
2017-04-30T12:05:57.759Z,42.30
2017-04-30T12:08:26.983Z,43.60
2017-04-30T12:10:56.172Z,44.20
2017-04-30T12:13:25.417Z,40.60
2017-04-30T12:15:54.645Z,40.30
2017-04-30T12:18:23.839Z,42.90
2017-04-30T12:20:53.021Z,41.70
2017-04-30T12:23:22.921Z,41.40
2017-04-30T12:25:52.107Z,41.40
2017-04-30T12:28:21.320Z,43.20
2017-04-30T12:30:50.519Z,44.40
2017-04-30T12:33:19.721Z,41.40
2017-04-30T12:35:48.939Z,38.20
2017-04-30T12:38:18.124Z,36.90
2017-04-30T12:40:47.319Z,40.90
2017-04-30T12:43:16.559Z,37.70
2017-04-30T12:45:45.746Z,35.90
2017-04-30T12:48:14.935Z,37.10
2017-04-30T12:50:44.151Z,40.50
2017-04-30T12:53:13.366Z,37.00
2017-04-30T12:55:42.555Z,37.00
2017-04-30T12:58:11.737Z,36.90
2017-04-30T13:00:40.954Z,35.80
2017-04-30T13:03:10.164Z,37.80
2017-04-30T13:05:39.347Z,31.30
2017-04-30T13:08:08.548Z,35.70
2017-04-30T13:10:37.741Z,34.80
2017-04-30T13:13:06.957Z,34.00
2017-04-30T13:15:36.839Z,36.10
2017-04-30T13:18:06.058Z,36.00
2017-04-30T13:20:35.923Z,34.50
2017-04-30T13:23:05.139Z,34.80
2017-04-30T13:25:34.335Z,33.90
2017-04-30T13:28:03.520Z,34.30
2017-04-30T13:30:32.715Z,36.20
2017-04-30T13:33:01.983Z,33.10
2017-04-30T13:35:31.207Z,33.90
2017-04-30T13:38:00.391Z,36.60
2017-04-30T13:40:29.587Z,31.20
2017-04-30T13:42:58.792Z,33.30
2017-04-30T13:45:27.997Z,32.00
2017-04-30T13:47:57.202Z,32.20
2017-04-30T13:50:26.407Z,33.40
2017-04-30T13:52:55.609Z,32.30
2017-04-30T13:55:24.795Z,31.40
2017-04-30T13:57:53.984Z,32.90
2017-04-30T14:00:23.216Z,33.20
2017-04-30T14:02:53.187Z,32.70
2017-04-30T14:05:22.387Z,32.80
2017-04-30T14:07:51.599Z,33.20
2017-04-30T14:10:20.813Z,34.20
2017-04-30T14:12:50.019Z,31.10
2017-04-30T14:15:19.992Z,31.80
2017-04-30T14:17:49.183Z,31.30
2017-04-30T14:20:18.383Z,30.70
2017-04-30T14:22:47.584Z,30.80
2017-04-30T14:25:16.786Z,32.00
2017-04-30T14:27:46.023Z,30.70
2017-04-30T14:30:15.235Z,30.50
2017-04-30T14:32:45.186Z,29.00
2017-04-30T14:35:14.415Z,29.70
2017-04-30T14:37:43.612Z,31.90
2017-04-30T14:40:12.829Z,29.60
2017-04-30T14:42:42.034Z,29.40
2017-04-30T14:45:11.231Z,30.60
2017-04-30T14:47:40.475Z,30.80
2017-04-30T14:50:09.682Z,29.00
2017-04-30T14:52:38.883Z,29.90
2017-04-30T14:55:08.090Z,28.80
2017-04-30T14:57:36.932Z,31.60
2017-04-30T15:00:06.882Z,30.50
2017-04-30T15:02:36.117Z,31.00
2017-04-30T15:05:05.305Z,30.50
2017-04-30T15:07:34.483Z,32.90
2017-04-30T15:10:03.691Z,30.00
2017-04-30T15:12:32.893Z,30.70
2017-04-30T15:15:02.084Z,30.40
2017-04-30T15:17:31.331Z,29.80
2017-04-30T15:20:00.514Z,30.80
2017-04-30T15:22:29.719Z,29.90
2017-04-30T15:24:59.548Z,30.20
2017-04-30T15:27:28.768Z,30.50
2017-04-30T15:29:58.763Z,31.40
2017-04-30T15:32:27.987Z,32.90
2017-04-30T15:34:58.247Z,30.70
2017-04-30T15:37:27.427Z,29.40
2017-04-30T15:39:56.614Z,28.70
2017-04-30T15:42:26.681Z,29.10
2017-04-30T15:44:55.860Z,27.60
2017-04-30T15:47:25.263Z,28.40
2017-04-30T15:49:54.469Z,30.60
2017-04-30T15:52:23.693Z,29.60
2017-04-30T15:54:52.940Z,29.30
2017-04-30T15:57:22.195Z,30.40
2017-04-30T15:59:51.405Z,29.30
2017-04-30T16:02:20.611Z,29.50
2017-04-30T16:04:49.803Z,29.30
2017-04-30T16:07:19.042Z,30.70
2017-04-30T16:09:48.244Z,31.00
2017-04-30T16:12:17.510Z,30.40
2017-04-30T16:14:46.714Z,30.50
2017-04-30T16:17:15.907Z,30.90
2017-04-30T16:19:45.105Z,31.00
2017-04-30T16:22:14.323Z,31.40
2017-04-30T16:24:43.568Z,32.00
2017-04-30T16:27:12.826Z,30.40
2017-04-30T16:29:42.786Z,30.90
2017-04-30T16:32:13.403Z,30.20
2017-04-30T16:34:42.650Z,30.30
2017-04-30T16:37:11.842Z,31.50
2017-04-30T16:39:41.043Z,32.40
2017-04-30T16:42:10.259Z,30.00
2017-04-30T16:44:39.531Z,30.60
2017-04-30T16:47:08.806Z,30.00
2017-04-30T16:49:38.008Z,30.50
2017-04-30T16:52:07.395Z,30.20
2017-04-30T16:54:37.339Z,30.80
2017-04-30T16:57:06.571Z,30.60
2017-04-30T16:59:35.783Z,30.60
2017-04-30T17:02:04.972Z,31.70
2017-04-30T17:04:34.187Z,31.50
2017-04-30T17:07:04.169Z,32.90
2017-04-30T17:09:34.039Z,32.70
2017-04-30T17:12:03.273Z,33.40
2017-04-30T17:14:32.478Z,33.20
2017-04-30T17:17:01.712Z,35.10
2017-04-30T17:19:30.924Z,34.50
2017-04-30T17:22:00.165Z,34.70
2017-04-30T17:24:29.385Z,35.50
2017-04-30T17:26:58.592Z,36.50
2017-04-30T17:29:27.791Z,36.90
2017-04-30T17:31:56.980Z,36.20
2017-04-30T17:34:27.398Z,36.90
2017-04-30T17:36:56.596Z,36.40
2017-04-30T17:39:25.868Z,36.10
2017-04-30T17:41:55.070Z,37.70
2017-04-30T17:44:25.198Z,37.10
2017-04-30T17:46:54.398Z,37.70
2017-04-30T17:49:23.596Z,38.30
2017-04-30T17:51:53.505Z,38.30
2017-04-30T17:54:22.704Z,38.50
2017-04-30T17:56:51.908Z,38.60
2017-04-30T17:59:21.150Z,38.60
2017-04-30T18:01:50.368Z,38.80
2017-04-30T18:04:19.569Z,39.30
2017-04-30T18:06:48.760Z,39.60
2017-04-30T18:09:17.977Z,40.70
2017-04-30T18:11:47.220Z,40.40
2017-04-30T18:14:16.490Z,40.80
2017-04-30T18:16:46.439Z,41.10
2017-04-30T18:19:17.107Z,41.50
2017-04-30T18:21:46.274Z,42.50
2017-04-30T18:24:15.464Z,42.10
2017-04-30T18:26:44.687Z,42.60
2017-04-30T18:29:13.895Z,43.90
2017-04-30T18:31:43.091Z,43.80
2017-04-30T18:34:12.412Z,44.80
2017-04-30T18:36:41.599Z,44.50
2017-04-30T18:39:10.823Z,44.80
2017-04-30T18:41:40.038Z,45.70
2017-04-30T18:44:09.999Z,45.80
2017-04-30T18:46:39.227Z,47.20
2017-04-30T18:49:08.484Z,46.70
2017-04-30T18:51:37.688Z,47.40
2017-04-30T18:54:06.900Z,47.20
2017-04-30T18:56:36.114Z,46.90
2017-04-30T18:59:05.464Z,46.60
2017-04-30T19:01:34.687Z,46.90
2017-04-30T19:04:03.883Z,47.10
2017-04-30T19:06:33.076Z,47.20
2017-04-30T19:09:02.289Z,48.40
2017-04-30T19:11:31.493Z,48.40
2017-04-30T19:14:00.716Z,48.50
2017-04-30T19:16:29.982Z,49.30
2017-04-30T19:18:59.177Z,49.20
2017-04-30T19:21:28.400Z,49.30
2017-04-30T19:23:57.626Z,49.10
2017-04-30T19:26:26.859Z,49.60
2017-04-30T19:28:56.060Z,50.00
2017-04-30T19:31:25.253Z,49.80
2017-04-30T19:33:55.226Z,49.90
2017-04-30T19:36:24.456Z,50.40
2017-04-30T19:38:53.668Z,50.50
2017-04-30T19:41:23.632Z,50.50
2017-04-30T19:43:52.832Z,50.50
2017-04-30T19:46:22.062Z,50.20
2017-04-30T19:48:52.033Z,50.70
2017-04-30T19:51:21.230Z,51.50
2017-04-30T19:53:50.483Z,52.30
2017-04-30T19:56:19.698Z,52.00
2017-04-30T19:58:49.649Z,52.60
2017-04-30T20:01:18.862Z,52.40
2017-04-30T20:03:48.228Z,52.50
2017-04-30T20:06:17.438Z,53.70
2017-04-30T20:08:46.752Z,52.30
2017-04-30T20:11:15.775Z,52.30
2017-04-30T20:13:44.971Z,52.40
2017-04-30T20:16:14.196Z,51.90
2017-04-30T20:18:43.418Z,52.10
2017-04-30T20:21:13.385Z,51.70
2017-04-30T20:23:42.619Z,53.00
2017-04-30T20:26:12.567Z,52.80
2017-04-30T20:28:41.805Z,52.60
2017-04-30T20:31:11.026Z,52.70
2017-04-30T20:33:40.224Z,52.60
2017-04-30T20:36:09.441Z,52.40
2017-04-30T20:38:39.388Z,53.90
2017-04-30T20:41:10.030Z,54.00
2017-04-30T20:43:39.289Z,53.00
2017-04-30T20:46:09.225Z,53.30
2017-04-30T20:48:38.460Z,55.00
2017-04-30T20:51:07.681Z,54.50
2017-04-30T20:53:36.901Z,54.70
2017-04-30T20:56:06.095Z,54.80
2017-04-30T20:58:35.349Z,54.70
2017-04-30T21:01:04.563Z,54.80
2017-04-30T21:03:33.791Z,55.20
2017-04-30T21:06:03.003Z,55.50
2017-04-30T21:08:32.964Z,54.00
2017-04-30T21:11:02.167Z,55.00
2017-04-30T21:13:31.389Z,55.30
2017-04-30T21:16:00.649Z,56.40
2017-04-30T21:18:29.865Z,55.40
2017-04-30T21:20:59.072Z,55.40
2017-04-30T21:23:28.260Z,55.80
2017-04-30T21:25:57.476Z,56.80
2017-04-30T21:28:26.675Z,57.90
2017-04-30T21:30:55.895Z,58.80
2017-04-30T21:33:25.079Z,57.50
2017-04-30T21:35:54.294Z,57.60
2017-04-30T21:38:23.513Z,57.60
2017-04-30T21:40:52.711Z,58.20
2017-04-30T21:43:21.938Z,58.80
2017-04-30T21:45:51.129Z,60.70
2017-04-30T21:48:20.318Z,60.40
2017-04-30T21:50:50.272Z,61.30
2017-04-30T21:53:19.492Z,61.30
2017-04-30T21:55:48.700Z,61.30
2017-04-30T21:58:17.891Z,62.20
2017-04-30T22:00:47.115Z,62.70
2017-04-30T22:03:16.321Z,64.10
2017-04-30T22:05:45.592Z,64.40
2017-04-30T22:08:14.795Z,63.20
2017-04-30T22:10:44.016Z,64.30
2017-04-30T22:13:13.208Z,65.20
2017-04-30T22:15:42.405Z,67.00
2017-04-30T22:18:11.695Z,67.50
2017-04-30T22:20:40.891Z,67.20
2017-04-30T22:23:10.100Z,68.20
2017-04-30T22:25:39.343Z,67.40
2017-04-30T22:28:08.526Z,67.50
2017-04-30T22:30:37.814Z,67.30
2017-04-30T22:33:07.720Z,67.90
2017-04-30T22:35:36.904Z,68.90
2017-04-30T22:38:06.116Z,69.80
2017-04-30T22:40:35.315Z,70.30
2017-04-30T22:43:04.513Z,70.20
2017-04-30T22:45:33.727Z,69.80
2017-04-30T22:48:02.924Z,69.80
2017-04-30T22:50:32.821Z,70.00
2017-04-30T22:53:02.088Z,69.10
2017-04-30T22:55:31.279Z,71.30
2017-04-30T22:58:00.501Z,70.10
2017-04-30T23:00:29.795Z,70.60
2017-04-30T23:02:58.995Z,71.80
2017-04-30T23:05:28.207Z,71.90
2017-04-30T23:07:57.400Z,70.70
2017-04-30T23:10:26.607Z,72.60
2017-04-30T23:12:55.823Z,72.50
2017-04-30T23:15:25.036Z,73.10
2017-04-30T23:17:54.232Z,72.80
2017-04-30T23:20:23.454Z,72.70
2017-04-30T23:22:53.387Z,72.70
2017-04-30T23:25:22.607Z,72.80
2017-04-30T23:27:51.888Z,72.80
2017-04-30T23:30:21.107Z,74.90
2017-04-30T23:32:50.304Z,73.70
2017-04-30T23:35:20.931Z,75.50
2017-04-30T23:37:50.159Z,74.20
2017-04-30T23:40:19.390Z,74.30
2017-04-30T23:42:49.479Z,74.60
2017-04-30T23:45:18.684Z,74.60
2017-04-30T23:47:47.881Z,74.40
2017-04-30T23:50:17.103Z,74.80
2017-04-30T23:52:46.320Z,74.70
2017-04-30T23:55:16.243Z,74.60
2017-04-30T23:57:45.482Z,74.40
